Time;durP1;ratioP1;P1;durP2;ratioP2;P2;SDS_P1;SDS_P2;PMS_P1;PMS_P2;Temp;Humidity;BMP_temperature;BMP_pressure;BME280_temperature;BME280_humidity;BME280_pressure;Samples;Min_cycle;Max_cycle;Signal;HPM_P1;HPM_P2
2021/12/23 00:00:06;;;;;;;19.10;16.08;;;;;;;;;;4988103;28;90563;-68
2021/12/23 00:02:34;;;;;;;22.55;16.77;;;;;;;;;;4983661;28;89081;-68
2021/12/23 00:05:01;;;;;;;24.65;17.83;;;;;;;;;;4984128;28;89262;-68
2021/12/23 00:07:27;;;;;;;19.10;15.98;;;;;;;;;;4985257;28;89085;-68
2021/12/23 00:10:07;;;;;;;22.08;16.67;;;;;;;;;;4977143;28;91064;-68
2021/12/23 00:12:35;;;;;;;20.35;16.73;;;;;;;;;;4989432;28;90086;-68
2021/12/23 00:15:03;;;;;;;27.38;16.65;;;;;;;;;;4981348;28;89772;-68
2021/12/23 00:25:17;;;;;;;19.25;16.02;;;;;;;;;;4986297;28;90167;-68
2021/12/23 00:27:43;;;;;;;25.20;16.15;;;;;;;;;;4979796;28;89222;-68
2021/12/23 00:30:10;;;;;;;21.63;16.70;;;;;;;;;;4984116;28;90973;-68
2021/12/23 00:32:37;;;;;;;21.50;16.25;;;;;;;;;;4986575;28;90963;-68
2021/12/23 00:35:06;;;;;;;20.45;16.00;;;;;;;;;;4982533;28;89454;-68
2021/12/23 00:37:39;;;;;;;21.75;15.85;;;;;;;;;;4988106;28;90052;-67
2021/12/23 00:40:08;;;;;;;25.75;17.20;;;;;;;;;;4977572;28;90072;-68
2021/12/23 00:42:34;;;;;;;21.00;16.95;;;;;;;;;;4984111;28;90915;-68
2021/12/23 00:45:03;;;;;;;25.83;17.38;;;;;;;;;;4979585;28;89830;-68
2021/12/23 00:47:29;;;;;;;29.63;16.35;;;;;;;;;;4992171;28;90267;-68
2021/12/23 00:49:56;;;;;;;22.00;15.70;;;;;;;;;;4984957;28;90912;-67
2021/12/23 00:52:29;;;;;;;19.35;15.65;;;;;;;;;;4986279;28;90660;-67
2021/12/23 00:54:56;;;;;;;;;;;;;;;;;;4986029;28;89076;-67
2021/12/23 00:57:27;;;;;;;17.05;13.95;;;;;;;;;;4989775;28;120464;-69
2021/12/23 00:59:54;;;;;;;19.77;15.50;;;;;;;;;;4981800;28;90858;-68
2021/12/23 01:02:28;;;;;;;20.13;14.70;;;;;;;;;;4983923;28;89244;-68
2021/12/23 01:04:54;;;;;;;23.02;15.52;;;;;;;;;;4979465;28;91622;-68
2021/12/23 01:07:21;;;;;;;21.20;15.20;;;;;;;;;;4982482;28;89705;-68
2021/12/23 01:09:47;;;;;;;21.67;15.20;;;;;;;;;;4983128;28;90495;-68
2021/12/23 01:12:19;;;;;;;19.35;14.15;;;;;;;;;;4986902;28;90410;-68
2021/12/23 01:14:56;;;;;;;24.30;15.50;;;;;;;;;;4988863;28;91049;-68
2021/12/23 01:17:31;;;;;;;27.05;16.65;;;;;;;;;;4991006;28;91265;-68
2021/12/23 01:20:01;;;;;;;18.83;13.63;;;;;;;;;;4983620;28;89232;-68
2021/12/23 01:22:27;;;;;;;19.50;15.07;;;;;;;;;;4987258;28;90273;-68
2021/12/23 01:24:53;;;;;;;21.27;15.63;;;;;;;;;;4986373;28;90059;-68
2021/12/23 01:27:20;;;;;;;27.33;16.70;;;;;;;;;;4988144;28;90372;-68
2021/12/23 01:29:46;;;;;;;19.58;16.15;;;;;;;;;;4985713;28;89150;-68
2021/12/23 01:32:13;;;;;;;25.25;15.40;;;;;;;;;;4982162;28;90035;-68
2021/12/23 01:34:39;;;;;;;22.42;15.38;;;;;;;;;;4983738;28;90949;-68
2021/12/23 01:37:06;;;;;;;21.23;15.25;;;;;;;;;;4979549;28;91190;-68
2021/12/23 01:39:32;;;;;;;20.65;16.20;;;;;;;;;;4987194;28;90601;-68
2021/12/23 01:41:59;;;;;;;22.38;16.35;;;;;;;;;;4978304;28;90328;-68
2021/12/23 01:44:25;;;;;;;19.10;16.13;;;;;;;;;;4984251;28;89861;-68
2021/12/23 01:46:51;;;;;;;22.92;16.05;;;;;;;;;;4983259;28;89884;-68
2021/12/23 01:49:18;;;;;;;18.48;15.32;;;;;;;;;;4976555;28;89304;-67
2021/12/23 01:51:44;;;;;;;21.90;15.10;;;;;;;;;;4984531;28;89020;-68
2021/12/23 01:54:10;;;;;;;18.83;15.32;;;;;;;;;;4980496;28;89560;-68
2021/12/23 01:56:37;;;;;;;20.20;15.50;;;;;;;;;;4982699;28;90749;-68
2021/12/23 01:59:03;;;;;;;18.70;14.90;;;;;;;;;;4983314;28;90653;-68
2021/12/23 02:01:30;;;;;;;21.88;16.50;;;;;;;;;;4978237;28;90736;-68
2021/12/23 02:03:57;;;;;;;19.35;14.68;;;;;;;;;;4983155;28;89912;-68
2021/12/23 02:06:23;;;;;;;23.42;16.27;;;;;;;;;;4984760;28;90968;-68
2021/12/23 02:08:50;;;;;;;20.27;15.48;;;;;;;;;;4989304;28;89762;-68
2021/12/23 02:11:16;;;;;;;22.00;14.50;;;;;;;;;;4978021;28;90093;-69
2021/12/23 02:13:42;;;;;;;23.38;16.05;;;;;;;;;;4985919;28;90765;-68
2021/12/23 02:16:09;;;;;;;25.23;17.23;;;;;;;;;;4981150;28;90460;-68
2021/12/23 02:18:36;;;;;;;17.80;15.10;;;;;;;;;;4986164;28;90017;-69
2021/12/23 02:21:03;;;;;;;18.77;15.95;;;;;;;;;;4983232;28;90808;-68
2021/12/23 02:23:29;;;;;;;20.27;14.80;;;;;;;;;;4980863;28;91074;-68
2021/12/23 02:25:56;;;;;;;20.88;15.85;;;;;;;;;;4983496;28;90347;-68
2021/12/23 02:28:23;;;;;;;24.52;17.13;;;;;;;;;;4988313;28;89062;-68
2021/12/23 02:30:51;;;;;;;19.80;16.05;;;;;;;;;;4981485;28;91000;-68
2021/12/23 02:33:19;;;;;;;21.77;15.63;;;;;;;;;;4979392;28;89907;-68
2021/12/23 02:35:46;;;;;;;20.30;15.95;;;;;;;;;;4989147;28;89170;-68
2021/12/23 02:38:12;;;;;;;18.83;16.38;;;;;;;;;;4989198;28;90431;-68
2021/12/23 02:40:39;;;;;;;20.80;15.13;;;;;;;;;;4982801;28;94825;-69
2021/12/23 02:43:08;;;;;;;17.83;14.38;;;;;;;;;;4983541;28;90537;-68
2021/12/23 02:45:34;;;;;;;18.52;16.10;;;;;;;;;;4983525;28;91089;-69
2021/12/23 02:48:01;;;;;;;22.13;16.42;;;;;;;;;;4982570;28;90174;-68
2021/12/23 02:50:28;;;;;;;21.77;15.35;;;;;;;;;;4989565;28;90559;-68
2021/12/23 02:52:54;;;;;;;19.00;15.75;;;;;;;;;;4982652;28;89832;-68
2021/12/23 02:55:20;;;;;;;19.17;14.52;;;;;;;;;;4983731;28;89188;-69
2021/12/23 02:57:47;;;;;;;20.00;15.43;;;;;;;;;;4984940;28;90339;-69
2021/12/23 03:00:13;;;;;;;24.52;15.98;;;;;;;;;;4980882;28;90926;-68
2021/12/23 03:02:40;;;;;;;22.52;16.67;;;;;;;;;;4978884;28;90226;-68
2021/12/23 03:05:07;;;;;;;22.52;17.13;;;;;;;;;;4987545;28;90800;-68
2021/12/23 03:07:34;;;;;;;23.35;16.77;;;;;;;;;;4989036;28;89397;-68
2021/12/23 03:10:01;;;;;;;20.50;15.73;;;;;;;;;;4983952;28;89209;-68
2021/12/23 03:12:27;;;;;;;19.70;15.70;;;;;;;;;;4984608;28;90878;-68
2021/12/23 03:14:53;;;;;;;24.75;17.92;;;;;;;;;;4982697;28;90794;-68
2021/12/23 03:17:20;;;;;;;26.65;16.77;;;;;;;;;;4985123;28;90228;-68
2021/12/23 03:19:46;;;;;;;25.30;17.25;;;;;;;;;;4988543;28;90249;-68
2021/12/23 03:22:12;;;;;;;25.33;18.13;;;;;;;;;;4982627;28;90233;-68
2021/12/23 03:24:39;;;;;;;22.60;17.40;;;;;;;;;;4983769;28;91092;-68
2021/12/23 03:27:05;;;;;;;21.08;17.25;;;;;;;;;;4985796;28;89444;-68
2021/12/23 03:29:31;;;;;;;25.33;16.63;;;;;;;;;;4985047;28;90476;-68
2021/12/23 03:31:58;;;;;;;22.90;18.30;;;;;;;;;;4977705;28;89925;-68
2021/12/23 03:34:24;;;;;;;27.38;17.70;;;;;;;;;;4978498;28;90440;-68
2021/12/23 03:36:50;;;;;;;25.15;16.20;;;;;;;;;;4985071;28;89922;-68
2021/12/23 03:39:17;;;;;;;26.63;18.77;;;;;;;;;;4986793;28;89911;-68
2021/12/23 03:41:43;;;;;;;21.25;16.33;;;;;;;;;;4978301;28;89196;-68
2021/12/23 03:44:09;;;;;;;31.38;17.58;;;;;;;;;;4990637;28;90506;-68
2021/12/23 03:46:37;;;;;;;21.58;18.35;;;;;;;;;;4982501;28;89667;-68
2021/12/23 03:49:05;;;;;;;19.70;16.60;;;;;;;;;;4987905;28;89810;-68
2021/12/23 03:51:32;;;;;;;22.92;16.70;;;;;;;;;;4990647;28;89525;-68
2021/12/23 03:53:58;;;;;;;30.50;17.02;;;;;;;;;;5002743;28;89960;-67
2021/12/23 03:56:25;;;;;;;26.45;17.02;;;;;;;;;;5008146;28;89050;-68
2021/12/23 03:58:53;;;;;;;27.63;18.90;;;;;;;;;;4986897;28;90841;-68
2021/12/23 04:01:21;;;;;;;25.55;17.17;;;;;;;;;;4978986;28;89546;-68
2021/12/23 04:03:49;;;;;;;21.65;17.10;;;;;;;;;;4989863;28;91201;-68
2021/12/23 04:06:15;;;;;;;22.30;16.73;;;;;;;;;;4991400;28;89044;-68
2021/12/23 04:08:42;;;;;;;18.95;16.27;;;;;;;;;;4977540;28;89338;-68
2021/12/23 04:11:08;;;;;;;22.52;17.33;;;;;;;;;;4987821;28;90086;-69
2021/12/23 04:13:34;;;;;;;27.50;19.73;;;;;;;;;;4985421;28;90231;-68
2021/12/23 04:16:01;;;;;;;22.00;16.88;;;;;;;;;;4984258;28;90069;-68
2021/12/23 04:18:27;;;;;;;25.50;17.95;;;;;;;;;;4985235;28;91153;-68
2021/12/23 04:20:53;;;;;;;23.02;16.42;;;;;;;;;;4993665;28;89802;-68
2021/12/23 04:23:21;;;;;;;27.60;19.15;;;;;;;;;;4987052;28;90055;-68
2021/12/23 04:25:47;;;;;;;16.70;12.90;;;;;;;;;;4982315;28;89650;-68
2021/12/23 04:28:14;;;;;;;23.38;18.98;;;;;;;;;;4988166;28;90351;-68
2021/12/23 04:30:40;;;;;;;22.48;17.73;;;;;;;;;;4977611;28;90635;-68
2021/12/23 04:33:07;;;;;;;23.38;18.17;;;;;;;;;;4992146;28;90861;-68
2021/12/23 04:35:33;;;;;;;23.15;19.77;;;;;;;;;;4988346;28;90309;-68
2021/12/23 04:37:59;;;;;;;24.88;17.77;;;;;;;;;;4995578;28;91143;-68
2021/12/23 04:40:26;;;;;;;19.38;16.05;;;;;;;;;;4984506;28;89091;-68
2021/12/23 04:42:52;;;;;;;26.80;20.27;;;;;;;;;;4987676;28;89074;-68
2021/12/23 04:45:18;;;;;;;19.58;13.43;;;;;;;;;;4990303;28;90999;-68
2021/12/23 04:47:45;;;;;;;28.38;19.88;;;;;;;;;;4983934;28;90042;-68
2021/12/23 04:50:12;;;;;;;28.70;20.73;;;;;;;;;;4982646;28;90311;-68
2021/12/23 04:52:38;;;;;;;24.95;19.48;;;;;;;;;;4984327;28;89935;-68
2021/12/23 04:55:05;;;;;;;29.70;18.77;;;;;;;;;;4987830;28;89989;-68
2021/12/23 04:57:32;;;;;;;29.67;22.10;;;;;;;;;;4984443;28;89442;-68
2021/12/23 04:59:58;;;;;;;32.47;21.55;;;;;;;;;;4983880;28;89264;-68
2021/12/23 05:02:24;;;;;;;25.30;18.67;;;;;;;;;;4984947;28;91368;-68
2021/12/23 05:04:51;;;;;;;24.90;17.38;;;;;;;;;;4986749;28;90502;-68
2021/12/23 05:07:18;;;;;;;36.05;22.98;;;;;;;;;;4988691;28;90082;-68
2021/12/23 05:09:44;;;;;;;28.05;21.65;;;;;;;;;;4989254;28;89584;-68
2021/12/23 05:12:11;;;;;;;32.10;22.08;;;;;;;;;;4982719;28;91063;-68
2021/12/23 05:14:37;;;;;;;35.53;23.60;;;;;;;;;;4996386;28;91705;-69
2021/12/23 05:17:04;;;;;;;32.85;23.30;;;;;;;;;;4988210;28;90523;-68
2021/12/23 05:19:30;;;;;;;29.48;21.90;;;;;;;;;;4980120;28;90498;-68
2021/12/23 05:21:57;;;;;;;35.75;22.33;;;;;;;;;;4984296;28;90924;-68
2021/12/23 05:24:23;;;;;;;35.30;22.38;;;;;;;;;;4990333;28;90040;-68
2021/12/23 05:26:49;;;;;;;35.25;20.73;;;;;;;;;;4986625;28;89942;-68
2021/12/23 05:29:16;;;;;;;34.60;21.88;;;;;;;;;;4984971;28;90307;-68
2021/12/23 05:31:42;;;;;;;30.48;22.33;;;;;;;;;;4989248;28;89923;-68
2021/12/23 05:34:08;;;;;;;32.08;22.45;;;;;;;;;;4982711;28;90368;-68
2021/12/23 05:36:35;;;;;;;33.33;22.35;;;;;;;;;;4984368;28;89922;-68
2021/12/23 05:39:02;;;;;;;34.72;25.40;;;;;;;;;;4983758;28;91188;-68
2021/12/23 05:41:28;;;;;;;37.75;25.55;;;;;;;;;;4983326;28;91158;-68
2021/12/23 05:43:56;;;;;;;32.78;22.60;;;;;;;;;;4979281;28;90074;-68
2021/12/23 05:46:23;;;;;;;35.17;26.08;;;;;;;;;;4993333;28;89332;-68
2021/12/23 05:48:49;;;;;;;38.10;24.67;;;;;;;;;;4983582;28;90466;-68
2021/12/23 05:51:16;;;;;;;42.38;26.75;;;;;;;;;;4985656;28;90217;-68
2021/12/23 05:53:42;;;;;;;41.65;26.25;;;;;;;;;;4986369;28;91787;-68
2021/12/23 05:56:09;;;;;;;46.78;26.98;;;;;;;;;;4986640;28;90408;-68
2021/12/23 05:58:35;;;;;;;52.45;26.58;;;;;;;;;;4983626;28;89797;-68
2021/12/23 06:01:02;;;;;;;47.33;26.30;;;;;;;;;;4976731;28;90345;-68
2021/12/23 06:03:29;;;;;;;45.22;27.23;;;;;;;;;;4990380;28;90518;-68
2021/12/23 06:05:55;;;;;;;47.53;26.60;;;;;;;;;;4983079;28;89077;-68
2021/12/23 06:08:22;;;;;;;50.75;30.73;;;;;;;;;;4991279;28;89968;-68
2021/12/23 06:10:48;;;;;;;46.33;28.20;;;;;;;;;;4979263;28;91972;-68
2021/12/23 06:13:15;;;;;;;44.05;27.48;;;;;;;;;;4994211;28;89868;-68
2021/12/23 06:15:41;;;;;;;51.75;32.33;;;;;;;;;;4983457;28;90776;-69
2021/12/23 06:18:07;;;;;;;49.85;29.42;;;;;;;;;;4980005;28;89010;-68
2021/12/23 06:20:37;;;;;;;46.97;27.98;;;;;;;;;;4982664;28;91077;-68
2021/12/23 06:23:04;;;;;;;50.40;29.70;;;;;;;;;;4986413;28;89979;-69
2021/12/23 06:25:31;;;;;;;49.25;28.55;;;;;;;;;;4986427;28;90473;-69
2021/12/23 06:27:57;;;;;;;48.83;27.75;;;;;;;;;;4984334;28;91233;-69
2021/12/23 06:30:23;;;;;;;48.30;28.35;;;;;;;;;;4987086;28;90521;-69
2021/12/23 06:32:52;;;;;;;46.85;28.65;;;;;;;;;;4988111;28;89650;-68
2021/12/23 06:35:19;;;;;;;46.58;28.00;;;;;;;;;;4992157;28;91655;-68
2021/12/23 06:37:45;;;;;;;40.90;27.20;;;;;;;;;;4989464;28;90260;-69
2021/12/23 06:40:12;;;;;;;37.53;22.77;;;;;;;;;;4983286;28;91499;-69
2021/12/23 06:42:39;;;;;;;54.35;29.27;;;;;;;;;;4979927;28;90143;-68
2021/12/23 06:45:06;;;;;;;49.03;28.55;;;;;;;;;;4980125;28;89338;-68
2021/12/23 06:47:35;;;;;;;44.72;27.00;;;;;;;;;;4981608;28;89891;-69
2021/12/23 06:50:03;;;;;;;48.00;29.58;;;;;;;;;;4985086;28;90742;-69
2021/12/23 06:52:30;;;;;;;42.72;25.73;;;;;;;;;;4982988;28;89108;-69
2021/12/23 06:54:57;;;;;;;50.08;29.88;;;;;;;;;;4978894;28;90091;-69
2021/12/23 06:57:25;;;;;;;46.28;27.05;;;;;;;;;;4979995;28;89883;-69
2021/12/23 06:59:52;;;;;;;51.22;30.02;;;;;;;;;;4986226;28;91506;-69
2021/12/23 07:02:18;;;;;;;38.10;21.85;;;;;;;;;;4989905;28;89518;-69
2021/12/23 07:04:45;;;;;;;47.53;27.88;;;;;;;;;;4975365;28;89066;-69
2021/12/23 07:07:19;;;;;;;46.35;28.55;;;;;;;;;;4987214;28;89048;-69
2021/12/23 07:09:45;;;;;;;47.67;29.08;;;;;;;;;;4986468;28;89854;-70
2021/12/23 07:12:12;;;;;;;41.58;25.70;;;;;;;;;;4980680;28;89749;-69
2021/12/23 07:14:39;;;;;;;49.65;29.33;;;;;;;;;;4986163;28;91188;-69
2021/12/23 07:17:07;;;;;;;45.45;28.13;;;;;;;;;;4991202;28;90846;-69
2021/12/23 07:19:34;;;;;;;43.42;30.17;;;;;;;;;;4983810;28;91010;-69
2021/12/23 07:22:00;;;;;;;53.83;32.03;;;;;;;;;;4981238;28;89884;-69
2021/12/23 07:24:26;;;;;;;40.30;26.90;;;;;;;;;;4983077;28;89734;-69
2021/12/23 07:26:53;;;;;;;46.50;27.40;;;;;;;;;;4973919;28;92643;-69
2021/12/23 07:29:20;;;;;;;42.20;27.25;;;;;;;;;;4986241;28;90392;-69
2021/12/23 07:31:46;;;;;;;54.95;28.85;;;;;;;;;;4986420;28;89013;-70
2021/12/23 07:34:13;;;;;;;53.42;29.58;;;;;;;;;;4988274;28;90999;-69
2021/12/23 07:36:39;;;;;;;48.70;30.77;;;;;;;;;;4982772;28;91333;-69
2021/12/23 07:39:09;;;;;;;51.13;29.48;;;;;;;;;;4997188;28;89980;-69
2021/12/23 07:41:56;;;;;;;45.70;29.25;;;;;;;;;;4988615;28;90177;-69
2021/12/23 07:44:34;;;;;;;47.75;28.75;;;;;;;;;;4986669;28;89237;-69
2021/12/23 07:47:01;;;;;;;47.05;28.15;;;;;;;;;;4982210;28;90247;-69
2021/12/23 07:49:27;;;;;;;46.70;30.52;;;;;;;;;;4986541;28;90515;-69
2021/12/23 07:51:54;;;;;;;59.42;33.55;;;;;;;;;;4983304;28;89047;-69
2021/12/23 07:54:20;;;;;;;47.40;30.20;;;;;;;;;;4983737;28;92196;-69
2021/12/23 07:56:47;;;;;;;47.58;30.88;;;;;;;;;;4995078;28;90776;-69
2021/12/23 07:59:14;;;;;;;50.75;31.30;;;;;;;;;;4995422;28;90001;-70
2021/12/23 08:01:40;;;;;;;51.53;30.88;;;;;;;;;;4988264;28;91770;-69
2021/12/23 08:04:07;;;;;;;51.47;29.67;;;;;;;;;;4986578;28;90118;-69
2021/12/23 08:06:33;;;;;;;57.28;33.97;;;;;;;;;;4978919;28;90549;-70
2021/12/23 08:08:59;;;;;;;52.25;31.77;;;;;;;;;;4991369;28;90812;-69
2021/12/23 08:11:26;;;;;;;58.55;34.92;;;;;;;;;;4981688;28;89743;-69
2021/12/23 08:13:52;;;;;;;43.80;27.88;;;;;;;;;;4985931;28;90117;-69
2021/12/23 08:16:19;;;;;;;54.60;33.10;;;;;;;;;;4980879;28;90141;-69
2021/12/23 08:18:45;;;;;;;49.10;30.58;;;;;;;;;;4983431;28;89713;-69
2021/12/23 08:21:11;;;;;;;55.35;33.45;;;;;;;;;;4977722;28;90016;-68
2021/12/23 08:23:38;;;;;;;54.92;31.73;;;;;;;;;;4983309;28;90256;-69
2021/12/23 08:26:11;;;;;;;50.67;30.58;;;;;;;;;;4995293;28;89776;-69
2021/12/23 08:28:37;;;;;;;56.00;32.35;;;;;;;;;;4992375;28;90631;-69
2021/12/23 08:31:03;;;;;;;51.22;29.48;;;;;;;;;;4976804;28;90282;-69
2021/12/23 08:33:30;;;;;;;52.58;33.67;;;;;;;;;;4988496;28;89092;-69
2021/12/23 08:35:56;;;;;;;51.28;30.95;;;;;;;;;;4984584;28;91705;-68
2021/12/23 08:38:23;;;;;;;54.55;33.15;;;;;;;;;;4992470;28;90907;-68
2021/12/23 08:40:49;;;;;;;56.92;31.73;;;;;;;;;;4987311;28;90340;-68
2021/12/23 08:43:15;;;;;;;54.13;29.98;;;;;;;;;;4984115;28;91084;-68
2021/12/23 08:45:42;;;;;;;53.35;30.23;;;;;;;;;;4983599;28;89930;-69
2021/12/23 08:48:08;;;;;;;49.95;30.38;;;;;;;;;;4983171;28;90278;-69
2021/12/23 08:50:34;;;;;;;52.20;31.10;;;;;;;;;;4980049;28;89556;-69
2021/12/23 08:53:02;;;;;;;53.35;30.67;;;;;;;;;;4979319;28;90895;-69
2021/12/23 08:55:31;;;;;;;41.40;25.05;;;;;;;;;;4981713;28;90169;-69
2021/12/23 08:57:59;;;;;;;49.85;30.17;;;;;;;;;;4977046;28;89311;-69
2021/12/23 09:00:26;;;;;;;47.85;30.83;;;;;;;;;;4982281;28;90883;-69
2021/12/23 09:02:52;;;;;;;49.92;27.95;;;;;;;;;;4976647;28;90397;-69
2021/12/23 09:05:19;;;;;;;48.30;30.48;;;;;;;;;;4988333;28;89893;-69
2021/12/23 09:07:46;;;;;;;53.25;28.83;;;;;;;;;;4984481;28;90318;-69
2021/12/23 09:10:13;;;;;;;47.45;28.85;;;;;;;;;;4985936;28;89704;-69
2021/12/23 09:12:40;;;;;;;51.22;31.25;;;;;;;;;;4978705;28;90833;-69
2021/12/23 09:15:07;;;;;;;45.03;28.60;;;;;;;;;;4990265;28;91603;-69
2021/12/23 09:17:33;;;;;;;49.53;31.48;;;;;;;;;;4977282;28;89934;-68
2021/12/23 09:20:00;;;;;;;47.15;27.08;;;;;;;;;;4983387;28;91067;-69
2021/12/23 09:22:26;;;;;;;54.45;30.40;;;;;;;;;;4984620;28;90628;-68
2021/12/23 09:24:57;;;;;;;44.38;29.90;;;;;;;;;;4982922;28;89212;-69
2021/12/23 09:27:39;;;;;;;45.28;30.52;;;;;;;;;;4991788;28;91992;-69
2021/12/23 09:32:54;;;;;;;42.85;28.23;;;;;;;;;;4982786;28;90017;-68
2021/12/23 09:35:41;;;;;;;50.33;29.75;;;;;;;;;;4976758;28;89484;-69
2021/12/23 09:38:08;;;;;;;48.60;28.80;;;;;;;;;;4981538;28;89565;-69
2021/12/23 09:40:35;;;;;;;46.35;27.30;;;;;;;;;;4987548;28;90512;-69
2021/12/23 09:43:06;;;;;;;50.17;30.08;;;;;;;;;;4982394;28;89913;-69
2021/12/23 09:45:33;;;;;;;46.45;28.40;;;;;;;;;;4975725;28;91850;-68
2021/12/23 09:48:01;;;;;;;38.58;24.65;;;;;;;;;;4983908;28;88971;-69
2021/12/23 09:50:29;;;;;;;44.85;29.40;;;;;;;;;;4989907;28;90553;-69
2021/12/23 09:52:56;;;;;;;42.65;27.33;;;;;;;;;;4986146;28;91038;-69
2021/12/23 09:55:24;;;;;;;47.05;26.92;;;;;;;;;;4991226;28;89779;-68
2021/12/23 09:57:51;;;;;;;47.78;30.42;;;;;;;;;;4981287;28;89179;-68
2021/12/23 10:00:19;;;;;;;44.40;28.90;;;;;;;;;;4982088;28;89934;-68
2021/12/23 10:02:45;;;;;;;45.47;30.20;;;;;;;;;;4975459;28;91057;-69
2021/12/23 10:05:18;;;;;;;47.55;29.65;;;;;;;;;;4975760;28;90156;-69
2021/12/23 10:07:47;;;;;;;45.13;29.40;;;;;;;;;;4976155;28;91663;-69
2021/12/23 10:10:40;;;;;;;47.17;27.98;;;;;;;;;;4995499;28;89509;-69
2021/12/23 10:26:53;;;;;;;40.30;26.73;;;;;;;;;;4995490;28;90533;-69
2021/12/23 10:38:01;;;;;;;43.88;27.55;;;;;;;;;;4977961;28;89553;-69
2021/12/23 10:40:28;;;;;;;47.72;27.33;;;;;;;;;;4970349;28;90921;-68
2021/12/23 10:42:55;;;;;;;45.63;30.83;;;;;;;;;;4973284;28;90358;-69
2021/12/23 10:45:31;;;;;;;44.30;29.45;;;;;;;;;;4978785;28;89918;-69
2021/12/23 10:48:03;;;;;;;41.28;27.63;;;;;;;;;;4977002;28;91484;-70
2021/12/23 10:50:41;;;;;;;52.92;31.27;;;;;;;;;;4974117;28;91082;-70
2021/12/23 10:53:25;;;;;;;43.38;26.83;;;;;;;;;;4977708;28;90999;-70
2021/12/23 10:59:04;;;;;;;44.38;28.00;;;;;;;;;;4977397;28;90724;-70
2021/12/23 11:01:31;;;;;;;44.60;28.60;;;;;;;;;;4979377;28;89629;-70
2021/12/23 11:04:03;;;;;;;45.22;27.95;;;;;;;;;;4982365;28;90763;-70
2021/12/23 11:06:40;;;;;;;41.70;27.93;;;;;;;;;;4981913;28;90539;-70
2021/12/23 11:37:56;;;;;;;42.75;24.63;;;;;;;;;;4976785;28;91012;-68
2021/12/23 11:45:34;;;;;;;43.53;24.55;;;;;;;;;;4974015;28;89566;-69
2021/12/23 11:48:05;;;;;;;39.47;24.75;;;;;;;;;;4983510;28;89515;-69
2021/12/23 11:50:41;;;;;;;46.63;27.58;;;;;;;;;;4974684;28;89904;-69
2021/12/23 11:53:08;;;;;;;44.90;27.63;;;;;;;;;;4985927;28;89073;-69
2021/12/23 11:55:35;;;;;;;40.65;25.85;;;;;;;;;;4976451;28;91411;-67
2021/12/23 11:58:01;;;;;;;44.85;28.30;;;;;;;;;;4979146;28;90832;-67
2021/12/23 12:00:42;;;;;;;41.60;25.20;;;;;;;;;;4982708;28;89038;-67
2021/12/23 12:03:10;;;;;;;44.47;26.65;;;;;;;;;;4973844;28;90867;-68
2021/12/23 12:05:37;;;;;;;39.03;25.20;;;;;;;;;;4981615;28;89994;-69
2021/12/23 12:08:06;;;;;;;43.08;27.35;;;;;;;;;;4981462;28;90110;-68
2021/12/23 12:10:33;;;;;;;40.40;26.65;;;;;;;;;;4989255;28;89180;-69
2021/12/23 12:13:07;;;;;;;44.45;27.52;;;;;;;;;;4975864;28;89163;-69
2021/12/23 12:15:57;;;;;;;42.53;27.25;;;;;;;;;;4985443;28;89667;-69
2021/12/23 12:18:24;;;;;;;42.25;26.50;;;;;;;;;;4982046;28;90080;-68
2021/12/23 12:20:59;;;;;;;45.00;27.80;;;;;;;;;;4983311;28;90566;-68
2021/12/23 12:23:36;;;;;;;50.08;28.02;;;;;;;;;;4977900;28;89861;-68
2021/12/23 12:26:05;;;;;;;45.45;25.80;;;;;;;;;;4985872;28;89626;-68
2021/12/23 12:28:36;;;;;;;44.28;25.33;;;;;;;;;;4983811;28;89836;-68
2021/12/23 12:31:08;;;;;;;46.08;26.40;;;;;;;;;;4985175;28;90087;-68
2021/12/23 12:33:36;;;;;;;43.40;26.00;;;;;;;;;;4987578;28;90748;-69
2021/12/23 12:36:03;;;;;;;50.53;27.88;;;;;;;;;;4984255;28;90882;-68
2021/12/23 12:38:30;;;;;;;41.72;26.73;;;;;;;;;;4985783;28;89625;-69
2021/12/23 12:40:59;;;;;;;45.17;27.50;;;;;;;;;;4983084;28;89037;-69
2021/12/23 12:43:35;;;;;;;41.20;26.10;;;;;;;;;;4985533;28;90253;-67
2021/12/23 12:46:02;;;;;;;42.08;25.88;;;;;;;;;;4982489;28;89503;-67
2021/12/23 12:48:48;;;;;;;41.83;25.83;;;;;;;;;;4983414;28;90764;-69
2021/12/23 12:51:19;;;;;;;40.42;26.80;;;;;;;;;;4995306;28;90947;-69
2021/12/23 12:53:52;;;;;;;42.97;26.10;;;;;;;;;;4989188;28;91376;-69
2021/12/23 12:56:18;;;;;;;;;;;;;;;;;;4977205;28;89862;-69
2021/12/23 12:58:50;;;;;;;50.63;25.15;;;;;;;;;;4987422;28;118439;-69
2021/12/23 13:01:28;;;;;;;41.28;25.70;;;;;;;;;;4982213;28;89332;-67
2021/12/23 13:03:55;;;;;;;40.15;25.20;;;;;;;;;;4977324;28;89297;-68
2021/12/23 13:06:21;;;;;;;45.38;27.33;;;;;;;;;;4984145;28;90417;-68
2021/12/23 13:09:11;;;;;;;49.85;27.83;;;;;;;;;;4978902;28;88918;-68
2021/12/23 13:12:27;;;;;;;46.20;26.33;;;;;;;;;;4957666;28;89738;-69
2021/12/23 13:15:16;;;;;;;42.33;23.73;;;;;;;;;;4982968;28;90888;-68
2021/12/23 13:18:21;;;;;;;40.42;25.30;;;;;;;;;;4986529;28;89519;-68
2021/12/23 13:20:53;;;;;;;51.70;28.00;;;;;;;;;;4977930;28;89556;-68
2021/12/23 13:23:22;;;;;;;47.65;27.23;;;;;;;;;;4986829;28;89542;-69
2021/12/23 13:25:56;;;;;;;42.80;26.48;;;;;;;;;;4980683;28;90532;-71
2021/12/23 13:28:30;;;;;;;50.38;28.38;;;;;;;;;;4977805;28;90353;-69
2021/12/23 13:30:57;;;;;;;42.63;28.52;;;;;;;;;;4981554;28;89256;-69
2021/12/23 13:33:24;;;;;;;48.17;27.40;;;;;;;;;;4978908;28;90198;-69
2021/12/23 13:35:53;;;;;;;54.67;27.90;;;;;;;;;;4987489;28;90482;-69
2021/12/23 13:38:45;;;;;;;38.28;26.83;;;;;;;;;;4984446;28;90722;-69
2021/12/23 13:41:13;;;;;;;46.20;29.00;;;;;;;;;;4977498;28;89948;-69
2021/12/23 13:43:39;;;;;;;42.92;27.23;;;;;;;;;;4976717;28;89085;-69
2021/12/23 13:46:07;;;;;;;40.95;27.25;;;;;;;;;;4983029;28;90441;-69
2021/12/23 13:48:46;;;;;;;41.95;27.48;;;;;;;;;;4984502;28;89970;-69
2021/12/23 13:51:13;;;;;;;45.17;25.55;;;;;;;;;;4983398;28;89032;-69
2021/12/23 13:53:39;;;;;;;45.53;27.40;;;;;;;;;;4982131;28;90100;-68
2021/12/23 13:56:13;;;;;;;43.35;26.65;;;;;;;;;;4985809;28;90571;-69
2021/12/23 13:58:39;;;;;;;46.53;28.77;;;;;;;;;;4987710;28;90393;-69
2021/12/23 14:01:07;;;;;;;51.83;27.50;;;;;;;;;;4977839;28;90376;-69
2021/12/23 14:03:33;;;;;;;50.72;28.27;;;;;;;;;;5001670;28;90542;-69
2021/12/23 14:06:01;;;;;;;43.22;26.88;;;;;;;;;;4984330;28;90988;-69
2021/12/23 14:08:30;;;;;;;46.63;27.88;;;;;;;;;;4988340;28;90383;-69
2021/12/23 14:10:58;;;;;;;41.00;26.25;;;;;;;;;;4986920;28;90555;-69
2021/12/23 14:13:24;;;;;;;44.38;27.98;;;;;;;;;;4982095;28;90814;-69
2021/12/23 14:16:06;;;;;;;51.65;29.15;;;;;;;;;;4981435;28;91953;-69
2021/12/23 14:23:51;;;;;;;38.58;26.65;;;;;;;;;;4981260;28;90520;-68
2021/12/23 14:26:18;;;;;;;47.85;26.63;;;;;;;;;;4987877;28;89947;-67
2021/12/23 14:28:47;;;;;;;42.70;26.35;;;;;;;;;;4980673;28;91038;-68
2021/12/23 14:31:22;;;;;;;49.70;28.10;;;;;;;;;;4975837;28;91025;-68
2021/12/23 14:33:50;;;;;;;44.00;28.77;;;;;;;;;;4983812;28;90876;-70
2021/12/23 14:36:33;;;;;;;39.90;26.05;;;;;;;;;;4994639;28;90569;-69
2021/12/23 14:39:02;;;;;;;39.70;27.17;;;;;;;;;;4979850;28;89115;-68
2021/12/23 14:41:39;;;;;;;49.80;27.23;;;;;;;;;;4979992;28;90967;-68
2021/12/23 14:44:11;;;;;;;45.35;29.08;;;;;;;;;;4975609;28;89931;-70
2021/12/23 14:46:41;;;;;;;43.90;27.55;;;;;;;;;;4981105;28;90831;-70
2021/12/23 14:49:43;;;;;;;40.08;26.80;;;;;;;;;;4981588;28;91016;-70
2021/12/23 14:52:29;;;;;;;50.72;28.52;;;;;;;;;;4991760;28;90192;-69
2021/12/23 14:54:56;;;;;;;44.45;28.55;;;;;;;;;;4978588;28;90710;-69
2021/12/23 14:57:42;;;;;;;49.80;29.17;;;;;;;;;;4977779;28;91306;-68
2021/12/23 15:00:21;;;;;;;43.90;27.88;;;;;;;;;;4969952;28;90853;-68
2021/12/23 15:02:47;;;;;;;41.38;27.30;;;;;;;;;;4989585;28;90721;-68
2021/12/23 15:05:14;;;;;;;46.65;28.08;;;;;;;;;;4984194;28;89089;-69
2021/12/23 15:07:44;;;;;;;40.65;26.70;;;;;;;;;;4982495;28;90804;-69
2021/12/23 15:10:11;;;;;;;47.45;29.70;;;;;;;;;;4981663;28;90131;-69
2021/12/23 15:12:37;;;;;;;44.63;27.38;;;;;;;;;;4982409;28;89168;-69
2021/12/23 15:15:08;;;;;;;44.20;28.63;;;;;;;;;;4980613;28;90388;-69
2021/12/23 15:17:42;;;;;;;48.15;30.95;;;;;;;;;;4973781;28;89409;-70
2021/12/23 15:20:28;;;;;;;46.80;29.10;;;;;;;;;;4977364;28;91884;-69
2021/12/23 15:23:00;;;;;;;46.47;28.35;;;;;;;;;;4991382;28;90046;-68
2021/12/23 15:25:40;;;;;;;50.38;29.58;;;;;;;;;;4976159;28;90685;-70
2021/12/23 15:28:07;;;;;;;47.53;26.95;;;;;;;;;;4978894;28;89191;-69
2021/12/23 15:30:34;;;;;;;41.50;23.52;;;;;;;;;;4975396;28;90086;-69
2021/12/23 15:33:04;;;;;;;51.15;30.58;;;;;;;;;;4979470;28;89535;-69
2021/12/23 15:35:35;;;;;;;50.25;29.77;;;;;;;;;;4980004;28;91339;-69
2021/12/23 15:38:02;;;;;;;48.88;29.25;;;;;;;;;;4987829;28;90006;-70
2021/12/23 15:40:30;;;;;;;47.60;29.70;;;;;;;;;;4986314;28;89877;-70
2021/12/23 15:43:00;;;;;;;54.22;29.48;;;;;;;;;;4977794;28;90532;-69